Terminal Aerodrome Forecast
Issued by NWS

Home | Current Version | Previous Version | Text Only | Print | Product List | Glossary On
Versions: 1 2 3 4 5 6 7 8 9 10 11 12 13 14 15
000
FTUS45 KABQ 011100 RRA
TAFGUP
TAF
KGUP 011140Z 0112/0212 VRB03KT P6SM BKN120
     FM011600 24010KT P6SM SCT110
     FM012000 33010KT P6SM VCTS SCT060CB BKN100
      TEMPO 0121/0124 VRB15G23KT 6SM TSRA BKN050CB
     FM020000 12008KT P6SM VCSH BKN060 BKN090=

USA.gov is the U.S. government's official web portal to all federal, state and local government web resources and services.